createdAt,value
2023-04-15T00:01:28.731Z,1.51
2023-04-15T00:06:32.174Z,1.46
2023-04-15T00:11:37.331Z,1.34
2023-04-15T00:16:40.934Z,1.38
2023-04-15T00:21:44.368Z,1.40
2023-04-15T00:26:49.334Z,1.38
2023-04-15T00:31:53.020Z,1.35
2023-04-15T00:36:56.616Z,1.25
2023-04-15T00:42:01.922Z,1.26
2023-04-15T00:47:07.132Z,1.13
2023-04-15T00:52:10.780Z,1.11
2023-04-15T00:57:16.097Z,1.07
2023-04-15T01:02:20.004Z,1.02
2023-04-15T01:07:23.585Z,0.97
2023-04-15T01:12:29.574Z,0.92
2023-04-15T01:17:33.278Z,0.80
2023-04-15T01:22:36.897Z,0.77
2023-04-15T01:27:43.626Z,0.79
2023-04-15T01:32:47.150Z,0.69
2023-04-15T01:38:11.563Z,0.65
2023-04-15T01:43:16.716Z,0.58
2023-04-15T01:48:21.870Z,0.54
2023-04-15T01:53:27.100Z,0.44
2023-04-15T01:58:33.199Z,0.49
2023-04-15T02:03:39.106Z,0.39
2023-04-15T02:08:43.912Z,0.37
2023-04-15T02:13:49.953Z,0.31
2023-04-15T02:18:54.758Z,0.25
2023-04-15T02:23:59.732Z,0.13
2023-04-15T02:29:05.504Z,0.20
2023-04-15T02:34:10.438Z,0.20
2023-04-15T02:39:16.984Z,0.21
2023-04-15T02:44:25.154Z,0.23
2023-04-15T02:49:31.121Z,0.24
2023-04-15T02:54:35.740Z,0.33
2023-04-15T02:59:41.821Z,0.44
2023-04-15T03:04:46.666Z,0.63
2023-04-15T03:09:51.778Z,0.74
2023-04-15T03:14:57.943Z,0.84
2023-04-15T03:20:03.329Z,0.98
2023-04-15T03:25:08.415Z,1.19
2023-04-15T03:30:15.165Z,1.35
2023-04-15T03:35:19.933Z,1.50
2023-04-15T03:40:24.594Z,1.65
2023-04-15T03:45:30.745Z,1.78
2023-04-15T03:50:35.772Z,2.12
2023-04-15T03:55:40.203Z,2.57
2023-04-15T04:00:46.414Z,2.67
2023-04-15T04:05:51.268Z,2.83
2023-04-15T04:10:56.305Z,3.51
2023-04-15T04:16:02.194Z,4.08
2023-04-15T04:21:07.136Z,4.24
2023-04-15T04:26:11.770Z,5.30
2023-04-15T04:31:17.854Z,5.46
2023-04-15T04:36:22.574Z,5.31
2023-04-15T04:41:27.390Z,4.64
2023-04-15T04:46:33.477Z,4.38
2023-04-15T04:51:38.372Z,4.67
2023-04-15T04:56:43.086Z,5.54
2023-04-15T05:01:49.531Z,5.95
2023-04-15T05:06:54.562Z,6.31
2023-04-15T05:11:59.560Z,7.74
2023-04-15T05:17:05.754Z,7.46
2023-04-15T05:22:10.705Z,8.47
2023-04-15T05:27:15.140Z,8.21
2023-04-15T05:32:21.854Z,8.43
2023-04-15T05:37:26.556Z,9.52
2023-04-15T05:42:31.613Z,10.16
2023-04-15T05:47:38.671Z,10.05
2023-04-15T05:52:43.782Z,10.63
2023-04-15T05:57:48.710Z,11.12
2023-04-15T06:02:54.988Z,10.56
2023-04-15T06:07:59.692Z,10.19
2023-04-15T06:13:04.514Z,11.41
2023-04-15T06:18:11.926Z,13.39
2023-04-15T06:23:16.615Z,14.32
2023-04-15T06:28:21.262Z,15.28
2023-04-15T06:33:27.384Z,15.30
2023-04-15T06:38:32.112Z,16.00
2023-04-15T06:43:36.492Z,17.02
2023-04-15T06:48:42.653Z,16.88
2023-04-15T06:53:47.349Z,17.18
2023-04-15T06:58:51.748Z,19.56
2023-04-15T07:03:57.841Z,20.19
2023-04-15T07:09:03.611Z,22.39
2023-04-15T07:14:08.677Z,22.69
2023-04-15T07:19:14.729Z,21.81
2023-04-15T07:24:20.924Z,19.82
2023-04-15T07:29:25.790Z,21.37
2023-04-15T07:34:32.685Z,21.17
2023-04-15T07:39:37.707Z,21.59
2023-04-15T07:44:42.556Z,21.65
2023-04-15T07:49:48.889Z,19.92
2023-04-15T07:54:53.994Z,18.46
2023-04-15T07:59:58.651Z,18.71
2023-04-15T08:05:05.453Z,17.50
2023-04-15T08:10:11.076Z,17.07
2023-04-15T08:15:15.848Z,17.48
2023-04-15T08:20:22.177Z,17.33
2023-04-15T08:25:27.403Z,16.39
2023-04-15T08:30:32.064Z,16.27
2023-04-15T08:35:37.871Z,16.47
2023-04-15T08:40:45.004Z,15.62
2023-04-15T08:45:51.977Z,14.08
2023-04-15T08:50:59.223Z,13.42
2023-04-15T08:56:08.756Z,12.70
2023-04-15T09:01:14.515Z,12.41
2023-04-15T09:06:20.749Z,11.63
2023-04-15T09:11:25.516Z,11.20
2023-04-15T09:16:30.199Z,10.99
2023-04-15T09:21:36.282Z,11.33
2023-04-15T09:26:41.438Z,11.90
2023-04-15T09:31:46.664Z,11.68
2023-04-15T09:36:59.325Z,11.51
2023-04-15T09:42:08.475Z,10.83
2023-04-15T09:47:29.495Z,11.31
2023-04-15T09:52:35.670Z,11.31
2023-04-15T09:57:41.532Z,10.87
2023-04-15T10:02:47.341Z,11.69
2023-04-15T10:07:53.753Z,11.14
2023-04-15T10:12:58.671Z,11.10
2023-04-15T10:18:03.583Z,11.61
2023-04-15T10:23:12.906Z,11.69
2023-04-15T10:28:18.480Z,11.71
2023-04-15T10:33:25.808Z,11.33
2023-04-15T10:38:36.678Z,11.53
2023-04-15T10:43:41.696Z,10.86
2023-04-15T10:48:48.943Z,10.54
2023-04-15T10:53:58.781Z,11.12
2023-04-15T10:59:03.433Z,10.79
2023-04-15T11:04:08.492Z,10.78
2023-04-15T11:09:33.335Z,10.33
2023-04-15T11:14:43.517Z,10.84
2023-04-15T11:19:48.519Z,10.65
2023-04-15T11:24:54.253Z,11.09
2023-04-15T11:29:59.002Z,11.35
2023-04-15T11:35:03.708Z,10.91
2023-04-15T11:40:11.763Z,11.07
2023-04-15T11:45:17.499Z,11.20
2023-04-15T11:50:23.784Z,11.37
2023-04-15T11:55:28.920Z,11.52
2023-04-15T12:00:32.657Z,11.36
2023-04-15T12:05:36.374Z,11.42
2023-04-15T12:10:41.256Z,11.48
2023-04-15T12:15:44.976Z,11.34
2023-04-15T12:20:50.200Z,11.45
2023-04-15T12:25:55.285Z,11.25
2023-04-15T12:30:59.600Z,10.80
2023-04-15T12:36:03.381Z,10.93
2023-04-15T12:41:08.376Z,11.22
2023-04-15T12:46:11.919Z,11.00
2023-04-15T12:51:15.723Z,10.84
2023-04-15T12:56:20.774Z,10.78
2023-04-15T13:01:24.273Z,10.81
2023-04-15T13:06:29.317Z,11.03
2023-04-15T13:11:35.143Z,10.85
2023-04-15T13:16:38.722Z,11.05
2023-04-15T13:21:42.701Z,10.79
2023-04-15T13:26:50.115Z,10.82
2023-04-15T13:31:53.979Z,11.03
2023-04-15T13:36:57.793Z,11.13
2023-04-15T13:42:03.843Z,10.96
2023-04-15T13:47:07.478Z,10.77
2023-04-15T13:52:11.124Z,10.99
2023-04-15T13:57:16.304Z,10.97
2023-04-15T14:02:19.996Z,11.08
2023-04-15T14:07:23.780Z,11.04
2023-04-15T14:12:28.764Z,10.88
2023-04-15T14:17:32.518Z,11.04
2023-04-15T14:22:36.292Z,10.82
2023-04-15T14:27:41.273Z,10.82
2023-04-15T14:32:44.446Z,10.11
2023-04-15T14:37:48.043Z,10.27
2023-04-15T14:42:53.362Z,10.37
2023-04-15T14:47:56.915Z,10.36
2023-04-15T14:53:00.628Z,10.32
2023-04-15T14:58:06.496Z,10.15
2023-04-15T15:03:13.882Z,9.97
2023-04-15T15:08:18.051Z,9.97
2023-04-15T15:13:23.277Z,9.84
2023-04-15T15:18:26.831Z,10.62
2023-04-15T15:23:30.272Z,10.20
2023-04-15T15:28:35.571Z,9.93
2023-04-15T15:33:39.083Z,9.70
2023-04-15T15:38:42.991Z,9.49
2023-04-15T15:43:47.939Z,9.22
2023-04-15T15:48:51.634Z,9.13
2023-04-15T15:53:55.154Z,8.98
2023-04-15T15:59:00.112Z,8.90
2023-04-15T16:04:03.512Z,8.63
2023-04-15T16:09:07.497Z,8.56
2023-04-15T16:14:14.144Z,8.42
2023-04-15T16:19:17.655Z,8.25
2023-04-15T16:24:21.406Z,8.17
2023-04-15T16:29:26.668Z,8.07
2023-04-15T16:34:30.167Z,7.94
2023-04-15T16:39:33.967Z,7.79
2023-04-15T16:44:39.012Z,7.66
2023-04-15T16:49:42.928Z,7.56
2023-04-15T16:54:46.500Z,7.36
2023-04-15T16:59:51.701Z,7.38
2023-04-15T17:04:55.033Z,7.15
2023-04-15T17:09:58.547Z,7.05
2023-04-15T17:15:03.897Z,7.07
2023-04-15T17:20:12.446Z,7.00
2023-04-15T17:25:17.926Z,6.88
2023-04-15T17:30:28.304Z,6.86
2023-04-15T17:35:51.783Z,6.73
2023-04-15T17:41:15.522Z,6.60
2023-04-15T17:46:40.353Z,6.50
2023-04-15T17:52:04.188Z,6.41
2023-04-15T17:57:27.626Z,6.34
2023-04-15T18:02:52.985Z,6.31
2023-04-15T18:08:16.862Z,6.35
2023-04-15T18:13:42.579Z,6.34
2023-04-15T18:19:08.945Z,6.41
2023-04-15T18:24:12.520Z,6.42
2023-04-15T18:29:16.121Z,6.36
2023-04-15T18:34:21.087Z,6.31
2023-04-15T18:39:24.606Z,6.12
2023-04-15T18:44:28.549Z,5.96
2023-04-15T18:49:34.114Z,5.92
2023-04-15T18:54:40.929Z,5.97
2023-04-15T18:59:44.712Z,5.96
2023-04-15T19:04:49.735Z,5.99
2023-04-15T19:09:53.294Z,5.92
2023-04-15T19:14:56.710Z,5.87
2023-04-15T19:20:01.715Z,5.90
2023-04-15T19:25:08.043Z,5.89
2023-04-15T19:30:11.791Z,5.89
2023-04-15T19:35:16.850Z,5.82
2023-04-15T19:40:20.751Z,5.83
2023-04-15T19:45:24.693Z,5.78
2023-04-15T19:50:29.776Z,5.75
2023-04-15T19:55:33.539Z,5.77
2023-04-15T20:00:37.984Z,5.77
2023-04-15T20:05:43.225Z,5.71
2023-04-15T20:10:46.589Z,5.51
2023-04-15T20:15:50.351Z,5.35
2023-04-15T20:20:55.330Z,5.30
2023-04-15T20:25:58.833Z,5.20
2023-04-15T20:31:02.752Z,5.14
2023-04-15T20:36:08.271Z,5.08
2023-04-15T20:41:11.896Z,5.16
2023-04-15T20:46:21.028Z,5.16
2023-04-15T20:51:27.636Z,5.11
2023-04-15T20:56:31.230Z,4.97
2023-04-15T21:01:34.810Z,4.94
2023-04-15T21:06:39.997Z,4.82
2023-04-15T21:12:00.418Z,4.78
2023-04-15T21:17:10.192Z,4.62
2023-04-15T21:22:16.381Z,4.70
2023-04-15T21:27:19.935Z,4.63
2023-04-15T21:32:23.609Z,4.61
2023-04-15T21:37:28.652Z,4.54
2023-04-15T21:42:32.379Z,4.58
2023-04-15T21:48:04.217Z,4.54
2023-04-15T21:53:01.161Z,4.53
2023-04-15T21:58:04.943Z,4.52
2023-04-15T22:03:08.581Z,4.63
2023-04-15T22:08:13.649Z,4.60
2023-04-15T22:13:17.966Z,4.63
2023-04-15T22:18:21.601Z,4.59
2023-04-15T22:23:26.695Z,4.69
2023-04-15T22:28:30.265Z,4.67
2023-04-15T22:33:34.128Z,4.72
2023-04-15T22:38:39.080Z,4.69
2023-04-15T22:43:42.351Z,4.61
2023-04-15T22:48:46.157Z,4.42
2023-04-15T22:53:51.224Z,4.32
2023-04-15T22:58:54.927Z,4.22
2023-04-15T23:04:05.891Z,4.20
2023-04-15T23:09:23.744Z,4.15
2023-04-15T23:14:28.287Z,4.13
2023-04-15T23:19:31.797Z,4.04
2023-04-15T23:24:36.700Z,3.94
2023-04-15T23:29:40.220Z,3.82
2023-04-15T23:34:43.643Z,3.79
2023-04-15T23:39:48.893Z,3.75
2023-04-15T23:44:52.668Z,3.61
2023-04-15T23:49:56.601Z,3.44
2023-04-15T23:55:01.610Z,3.35
